Time;durP1;ratioP1;P1;durP2;ratioP2;P2;SDS_P1;SDS_P2;PMS_P1;PMS_P2;Temp;Humidity;BMP_temperature;BMP_pressure;BME280_temperature;BME280_humidity;BME280_pressure;Samples;Min_cycle;Max_cycle;Signal;HPM_P1;HPM_P2
2021/10/22 00:01:05;;;;;;;49.13;31.27;;;435.90;1638.40;;;;;;4937976;29;20059;-74
2021/10/22 00:03:30;;;;;;;41.83;28.92;;;436.00;1638.40;;;;;;4938019;29;20034;-74
2021/10/22 00:05:56;;;;;;;45.67;28.30;;;435.70;1664.00;;;;;;4938449;29;20497;-73
2021/10/22 00:08:24;;;;;;;42.42;28.10;;;435.50;1689.60;;;;;;4938009;29;20020;-74
2021/10/22 00:10:50;;;;;;;25.98;19.10;;;435.80;1664.00;;;;;;4938012;29;20035;-74
2021/10/22 00:13:16;;;;;;;28.05;18.92;;;435.50;1664.00;;;;;;4938006;29;20023;-74
2021/10/22 00:15:42;;;;;;;24.60;18.17;;;;;;;;;;4937863;29;20036;-73
2021/10/22 00:18:08;;;;;;;27.27;17.80;;;;;;;;;;4936404;29;20028;-74
2021/10/22 00:20:34;;;;;;;29.35;19.13;;;;;;;;;;4938236;29;20489;-74
2021/10/22 00:23:00;;;;;;;27.48;17.63;;;461.20;1587.20;;;;;;4937712;29;20027;-74
2021/10/22 00:25:26;;;;;;;31.15;19.38;;;461.10;1587.20;;;;;;4937899;29;20024;-74
2021/10/22 00:27:51;;;;;;;32.25;20.08;;;436.10;1792.00;;;;;;4937958;29;20028;-74
2021/10/22 00:30:17;;;;;;;29.80;20.50;;;435.80;1638.40;;;;;;4937595;29;20511;-74
2021/10/22 00:32:43;;;;;;;39.67;22.05;;;435.90;1638.40;;;;;;4937596;29;20027;-75
2021/10/22 00:35:09;;;;;;;39.88;26.27;;;435.90;1638.40;;;;;;4937585;29;20068;-73
2021/10/22 00:37:35;;;;;;;41.35;28.85;;;461.10;1638.40;;;;;;4937636;29;20099;-74
2021/10/22 00:40:02;;;;;;;34.55;24.05;;;461.10;1612.80;;;;;;4937390;29;20034;-73
2021/10/22 00:42:28;;;;;;;39.40;25.33;;;;;;;;;;4937604;29;20434;-74
2021/10/22 00:44:54;;;;;;;36.90;26.00;;;;;;;;;;4937502;29;20035;-74
2021/10/22 00:47:21;;;;;;;40.50;24.38;;;;;;;;;;4937248;29;20039;-74
2021/10/22 00:49:46;;;;;;;32.03;23.05;;;460.90;1612.80;;;;;;4937589;29;20375;-74
2021/10/22 00:52:15;;;;;;;33.78;23.02;;;436.10;1612.80;;;;;;4937166;29;20031;-73
2021/10/22 00:54:42;;;;;;;30.20;21.92;;;435.70;1664.00;;;;;;4937059;29;20127;-74
2021/10/22 00:57:12;;;;;;;32.78;19.65;;;435.80;1689.60;;;;;;4937184;29;20035;-74
2021/10/22 00:59:38;;;;;;;22.52;16.38;;;435.60;1689.60;;;;;;4937157;29;20478;-73
2021/10/22 01:02:04;;;;;;;35.95;23.30;;;435.40;1715.20;;;;;;4936937;29;20094;-73
2021/10/22 01:04:31;;;;;;;29.55;19.75;;;435.50;1715.20;;;;;;4936843;29;20094;-75
2021/10/22 01:06:57;;;;;;;27.38;15.57;;;435.40;1715.20;;;;;;4936167;29;20027;-75
2021/10/22 01:09:24;;;;;;;23.70;15.43;;;435.30;1715.20;;;;;;4935490;29;20127;-75
2021/10/22 01:11:50;;;;;;;22.23;14.23;;;435.30;1715.20;;;;;;4937122;29;20027;-75
2021/10/22 01:14:17;;;;;;;59.75;37.50;;;435.40;1715.20;;;;;;4936943;29;20043;-74
2021/10/22 01:16:43;;;;;;;42.58;26.15;;;436.10;1638.40;;;;;;4936678;29;20498;-74
2021/10/22 01:19:18;;;;;;;29.13;17.55;;;;;;;;;;4936785;29;20024;-74
2021/10/22 01:21:49;;;;;;;25.98;16.30;;;;;;;;;;4936674;29;20038;-74
2021/10/22 01:24:17;;;;;;;30.92;16.92;;;461.10;1612.80;;;;;;4937030;29;20062;-75
2021/10/22 01:26:44;;;;;;;25.38;16.33;;;;;;;;;;4936572;29;20031;-74
2021/10/22 01:29:10;;;;;;;32.55;18.75;;;;;;;;;;4936690;29;20058;-73
2021/10/22 01:31:37;;;;;;;30.50;17.58;;;;;;;;;;4936351;29;20379;-74
2021/10/22 01:34:03;;;;;;;25.88;16.65;;;;;;;;;;4936391;29;20032;-74
2021/10/22 01:36:32;;;;;;;24.45;16.15;;;;;;;;;;4936758;29;20039;-74
2021/10/22 01:38:59;;;;;;;23.75;15.90;;;;;;;;;;4936420;29;20031;-74
2021/10/22 01:41:25;;;;;;;21.65;14.98;;;;;;;;;;4935131;29;20031;-74
2021/10/22 01:43:53;;;;;;;21.17;14.90;;;;;;;;;;4936385;29;20095;-74
2021/10/22 01:46:19;;;;;;;26.48;16.13;;;;;;;;;;4936071;29;20387;-74
2021/10/22 01:48:47;;;;;;;33.53;18.52;;;;;;;;;;4934897;29;20039;-72
2021/10/22 01:51:13;;;;;;;37.70;23.05;;;;;;;;;;4934474;29;20490;-74
2021/10/22 01:53:39;;;;;;;40.38;24.65;;;;;;;;;;4935829;29;20052;-74
2021/10/22 01:56:05;;;;;;;47.92;31.85;;;;;;;;;;4936058;29;20549;-74
2021/10/22 01:58:31;;;;;;;64.40;47.97;;;;;;;;;;4936130;29;20042;-74
2021/10/22 02:00:57;;;;;;;45.30;28.10;;;;;;;;;;4935744;29;20030;-74
2021/10/22 02:03:23;;;;;;;35.47;23.95;;;;;;;;;;4936388;29;20035;-74
2021/10/22 02:05:49;;;;;;;39.70;23.05;;;;;;;;;;4936348;29;20438;-74
2021/10/22 02:08:15;;;;;;;29.10;19.40;;;;;;;;;;4935862;29;20035;-72
2021/10/22 02:10:41;;;;;;;36.65;22.38;;;;;;;;;;4935901;29;20031;-74
2021/10/22 02:13:07;;;;;;;44.30;30.17;;;;;;;;;;4935655;29;20028;-73
2021/10/22 02:15:33;;;;;;;47.60;32.38;;;;;;;;;;4935667;29;20040;-73
2021/10/22 02:17:59;;;;;;;29.98;21.35;;;;;;;;;;4935557;29;20036;-73
2021/10/22 02:20:27;;;;;;;32.30;22.40;;;;;;;;;;4935727;29;20482;-73
2021/10/22 02:22:53;;;;;;;32.30;20.92;;;;;;;;;;4935750;29;20024;-73
2021/10/22 02:25:21;;;;;;;28.17;20.00;;;;;;;;;;4935563;29;20072;-73
2021/10/22 02:27:47;;;;;;;42.05;25.63;;;;;;;;;;4935635;29;20028;-72
2021/10/22 02:30:13;;;;;;;38.60;27.08;;;;;;;;;;4935463;29;20032;-73
2021/10/22 02:32:39;;;;;;;48.00;29.92;;;;;;;;;;4935490;29;20082;-73
2021/10/22 02:35:06;;;;;;;39.65;27.23;;;;;;;;;;4935284;29;20047;-73
2021/10/22 02:37:32;;;;;;;36.03;19.63;;;;;;;;;;4935734;29;20115;-73
2021/10/22 02:39:58;;;;;;;29.77;19.52;;;;;;;;;;4935458;29;20039;-73
2021/10/22 02:42:24;;;;;;;32.78;20.48;;;;;;;;;;4935436;29;20379;-72
2021/10/22 02:44:50;;;;;;;31.27;20.70;;;;;;;;;;4935540;29;20031;-74
2021/10/22 02:47:16;;;;;;;35.90;20.00;;;;;;;;;;4935101;29;20024;-73
2021/10/22 02:49:42;;;;;;;23.05;16.27;;;;;;;;;;4935433;29;20122;-73
2021/10/22 02:52:08;;;;;;;28.38;18.00;;;;;;;;;;4935321;29;20031;-73
2021/10/22 02:54:34;;;;;;;22.45;14.70;;;;;;;;;;4935104;29;20529;-73
2021/10/22 02:57:01;;;;;;;22.33;13.77;;;;;;;;;;4935335;29;20035;-74
2021/10/22 02:59:27;;;;;;;20.15;12.43;;;;;;;;;;4935213;29;20083;-73
2021/10/22 03:01:53;;;;;;;18.83;12.00;;;;;;;;;;4935250;29;20115;-73
2021/10/22 03:04:19;;;;;;;25.52;13.65;;;;;;;;;;4935183;29;20035;-72
2021/10/22 03:06:45;;;;;;;23.40;12.52;;;;;;;;;;4935349;29;20055;-74
2021/10/22 03:09:11;;;;;;;16.50;11.63;;;;;;;;;;4935271;29;20032;-73
2021/10/22 03:11:37;;;;;;;20.02;12.95;;;;;;;;;;4935183;29;20470;-73
2021/10/22 03:14:04;;;;;;;20.25;12.85;;;;;;;;;;4935190;29;20087;-72
2021/10/22 03:16:30;;;;;;;31.58;18.08;;;;;;;;;;4934808;29;20028;-74
2021/10/22 03:18:56;;;;;;;40.83;25.30;;;;;;;;;;4935150;29;20036;-73
2021/10/22 03:21:23;;;;;;;37.75;17.98;;;;;;;;;;4935250;29;20072;-73
2021/10/22 03:23:54;;;;;;;33.58;15.45;;;;;;;;;;4934936;29;20075;-73
2021/10/22 03:26:20;;;;;;;25.73;12.88;;;;;;;;;;4935107;29;20095;-74
2021/10/22 03:28:47;;;;;;;20.23;12.10;;;;;;;;;;4934868;29;20028;-73
2021/10/22 03:31:13;;;;;;;20.90;13.20;;;;;;;;;;4937145;29;20032;-74
2021/10/22 03:33:39;;;;;;;30.65;20.58;;;;;;;;;;4938660;29;20020;-73
2021/10/22 03:36:05;;;;;;;30.75;20.48;;;;;;;;;;4938900;29;20066;-73
2021/10/22 03:38:31;;;;;;;31.23;19.65;;;;;;;;;;4938716;29;20382;-73
2021/10/22 03:40:57;;;;;;;32.75;18.70;;;;;;;;;;4938644;29;20541;-73
2021/10/22 03:43:23;;;;;;;29.85;18.75;;;;;;;;;;4938583;29;20053;-73
2021/10/22 03:45:49;;;;;;;32.92;18.73;;;;;;;;;;4938409;29;20024;-73
2021/10/22 03:48:15;;;;;;;29.23;18.45;;;;;;;;;;4938804;29;20039;-74
2021/10/22 03:50:41;;;;;;;30.67;19.92;;;;;;;;;;4938307;29;20067;-73
2021/10/22 03:53:09;;;;;;;37.88;23.25;;;;;;;;;;4938633;29;20038;-74
2021/10/22 03:55:35;;;;;;;33.83;20.17;;;;;;;;;;4937920;29;20051;-73
2021/10/22 03:58:01;;;;;;;73.45;42.58;;;;;;;;;;4938372;29;20027;-74
2021/10/22 04:00:27;;;;;;;81.57;46.53;;;;;;;;;;4938188;29;20102;-74
2021/10/22 04:02:53;;;;;;;80.95;46.83;;;;;;;;;;4937852;29;20569;-74
2021/10/22 04:05:19;;;;;;;41.55;27.50;;;;;;;;;;4938548;29;20036;-74
2021/10/22 04:07:45;;;;;;;37.30;25.65;;;;;;;;;;4938113;29;20035;-73
2021/10/22 04:10:11;;;;;;;42.70;27.73;;;;;;;;;;4938066;29;20166;-74
2021/10/22 04:12:37;;;;;;;42.58;25.20;;;;;;;;;;4938064;29;20027;-74
2021/10/22 04:15:03;;;;;;;36.97;24.77;;;;;;;;;;4937895;29;20024;-73
2021/10/22 04:17:30;;;;;;;38.53;25.85;;;;;;;;;;4937859;29;20028;-74
2021/10/22 04:19:56;;;;;;;40.17;30.10;;;;;;;;;;4937748;29;20084;-73
2021/10/22 04:22:22;;;;;;;46.58;30.63;;;;;;;;;;4937875;29;20099;-74
2021/10/22 04:24:48;;;;;;;32.83;23.05;;;;;;;;;;4937690;29;20023;-74
2021/10/22 04:27:14;;;;;;;55.00;30.92;;;;;;;;;;4937879;29;20031;-73
2021/10/22 04:29:40;;;;;;;52.58;29.58;;;;;;;;;;4938184;29;20370;-73
2021/10/22 04:32:07;;;;;;;32.13;22.67;;;;;;;;;;4937469;29;20019;-73
2021/10/22 04:34:34;;;;;;;23.90;16.88;;;;;;;;;;4937639;29;20035;-74
2021/10/22 04:37:23;;;;;;;22.85;16.45;;;;;;;;;;4937673;29;20031;-73
2021/10/22 04:42:46;;;;;;;19.08;13.57;;;;;;;;;;4937439;29;20568;-73
2021/10/22 04:45:12;;;;;;;18.45;13.80;;;;;;;;;;4937319;29;20027;-74
2021/10/22 04:47:38;;;;;;;18.58;14.07;;;;;;;;;;4937786;29;20012;-74
2021/10/22 04:50:05;;;;;;;26.05;19.65;;;;;;;;;;4937656;29;20323;-74
2021/10/22 04:52:32;;;;;;;31.70;27.23;;;;;;;;;;4935919;29;20482;-74
2021/10/22 04:54:58;;;;;;;17.77;14.38;;;;;;;;;;4937010;29;20414;-74
2021/10/22 04:57:24;;;;;;;18.02;12.05;;;;;;;;;;4936817;29;20026;-74
2021/10/22 04:59:50;;;;;;;12.95;10.90;;;;;;;;;;4937133;29;20024;-74
2021/10/22 05:02:16;;;;;;;15.40;11.70;;;;;;;;;;4937255;29;20083;-74
2021/10/22 05:04:42;;;;;;;24.48;17.88;;;;;;;;;;4937027;29;20047;-73
2021/10/22 05:07:08;;;;;;;24.83;19.42;;;;;;;;;;4937070;29;20036;-73
2021/10/22 05:09:34;;;;;;;24.50;17.23;;;;;;;;;;4936881;29;20070;-74
2021/10/22 05:12:05;;;;;;;15.70;10.85;;;;;;;;;;4936868;29;20020;-73
2021/10/22 05:14:31;;;;;;;;;;;;;;;;;;4937271;29;20533;-72
2021/10/22 05:16:57;;;;;;;38.83;25.35;;;;;;;;;;4936908;29;19985;-73
2021/10/22 05:19:23;;;;;;;26.27;18.83;;;;;;;;;;4936619;29;20051;-73
2021/10/22 05:21:49;;;;;;;26.35;18.25;;;;;;;;;;4936462;29;20019;-74
2021/10/22 05:24:15;;;;;;;28.92;20.83;;;;;;;;;;4936721;29;20541;-74
2021/10/22 05:26:41;;;;;;;33.05;23.83;;;;;;;;;;4937031;29;20054;-74
2021/10/22 05:29:08;;;;;;;36.85;25.42;;;;;;;;;;4936841;29;20035;-73
2021/10/22 05:31:34;;;;;;;33.88;26.83;;;;;;;;;;4936196;29;20030;-73
2021/10/22 05:34:00;;;;;;;38.42;27.00;;;;;;;;;;4936328;29;20024;-74
2021/10/22 05:36:26;;;;;;;43.92;28.30;;;;;;;;;;4936544;29;20038;-74
2021/10/22 05:38:52;;;;;;;45.35;31.60;;;;;;;;;;4936363;29;20395;-74
2021/10/22 05:41:19;;;;;;;40.35;31.42;;;;;;;;;;4936397;29;20047;-73
2021/10/22 05:43:45;;;;;;;131.00;80.30;;;;;;;;;;4934784;29;20091;-73
2021/10/22 05:46:12;;;;;;;111.28;72.97;;;;;;;;;;4936230;29;20463;-73
2021/10/22 05:48:38;;;;;;;94.55;59.80;;;;;;;;;;4936162;29;20034;-74
2021/10/22 05:51:04;;;;;;;84.65;53.92;;;;;;;;;;4936364;29;20106;-74
2021/10/22 05:53:31;;;;;;;78.75;51.38;;;;;;;;;;4935489;29;20058;-73
2021/10/22 05:55:57;;;;;;;72.55;52.75;;;;;;;;;;4935978;29;20059;-73
2021/10/22 05:58:23;;;;;;;76.05;51.60;;;;;;;;;;4934710;29;20059;-73
2021/10/22 06:00:50;;;;;;;77.47;51.45;;;;;;;;;;4935836;29;20031;-73
2021/10/22 06:03:16;;;;;;;73.45;49.53;;;;;;;;;;4935766;29;20019;-73
2021/10/22 06:05:43;;;;;;;70.07;46.30;;;;;;;;;;4935994;29;20027;-73
2021/10/22 06:08:09;;;;;;;66.95;45.95;;;;;;;;;;4935763;29;20028;-74
2021/10/22 06:10:35;;;;;;;73.13;48.45;;;;;;;;;;4935833;29;20482;-73
2021/10/22 06:13:02;;;;;;;59.13;43.47;;;;;;;;;;4935697;29;20394;-73
2021/10/22 06:15:30;;;;;;;60.47;42.40;;;;;;;;;;4933981;29;20039;-73
2021/10/22 06:17:56;;;;;;;57.70;40.92;;;;;;;;;;4935533;29;20111;-72
2021/10/22 06:20:28;;;;;;;56.42;40.33;;;;;;;;;;4935504;29;20538;-74
2021/10/22 06:25:42;;;;;;;99.78;73.05;;;;;;;;;;4932958;29;20513;-73
2021/10/22 06:28:10;;;;;;;110.63;80.20;;;;;;;;;;4932988;29;20410;-74
2021/10/22 06:30:37;;;;;;;90.05;63.15;;;;;;;;;;4933021;29;20058;-73
2021/10/22 06:33:03;;;;;;;79.40;56.60;;;;;;;;;;4933087;29;20067;-73
2021/10/22 06:35:29;;;;;;;74.00;50.47;;;;;;;;;;4932763;29;20118;-74
2021/10/22 06:37:55;;;;;;;62.63;44.13;;;;;;;;;;4932955;29;20062;-73
2021/10/22 06:40:22;;;;;;;42.55;28.10;;;;;;;;;;4932630;29;20418;-73
2021/10/22 06:42:50;;;;;;;43.38;32.35;;;;;;;;;;4932781;29;20040;-73
2021/10/22 06:45:19;;;;;;;53.15;35.85;;;;;;;;;;4932553;29;20034;-73
2021/10/22 06:47:47;;;;;;;49.03;35.60;;;;;;;;;;4932732;29;20664;-73
2021/10/22 06:50:15;;;;;;;53.03;34.25;;;;;;;;;;4932482;29;20050;-73
2021/10/22 06:52:41;;;;;;;124.38;88.95;;;;;;;;;;4933151;29;20031;-73
2021/10/22 06:55:07;;;;;;;80.97;57.45;;;;;;;;;;4932416;29;20062;-73
2021/10/22 06:57:33;;;;;;;77.35;53.28;;;;;;;;;;4932748;29;20027;-74
2021/10/22 07:00:02;;;;;;;58.60;40.53;;;;;;;;;;4932710;29;20020;-73
2021/10/22 07:02:28;;;;;;;80.10;42.13;;;;;;;;;;4933508;28;20046;-73
2021/10/22 07:04:54;;;;;;;32.72;22.85;;;;;;;;;;4935177;29;20071;-73
2021/10/22 07:07:24;;;;;;;30.13;21.70;;;;;;;;;;4938902;29;20078;-74
2021/10/22 07:09:51;;;;;;;40.13;26.70;;;;;;;;;;4938588;29;20027;-73
2021/10/22 07:12:17;;;;;;;36.95;28.48;;;;;;;;;;4938794;29;20055;-73
2021/10/22 07:14:52;;;;;;;40.53;28.85;;;;;;;;;;4938461;29;20035;-74
2021/10/22 07:17:18;;;;;;;48.20;29.63;;;;;;;;;;4937388;29;20038;-73
2021/10/22 07:19:44;;;;;;;48.58;34.45;;;;;;;;;;4938564;29;20107;-73
2021/10/22 07:22:14;;;;;;;61.50;42.30;;;;;;;;;;4939006;29;20030;-73
2021/10/22 07:24:40;;;;;;;88.00;57.78;;;;;;;;;;4938556;29;20035;-74
2021/10/22 07:27:07;;;;;;;81.82;56.78;;;;;;;;;;4938448;29;20028;-73
2021/10/22 07:29:33;;;;;;;82.30;58.03;;;;;;;;;;4938667;29;20024;-72
2021/10/22 07:32:00;;;;;;;90.47;63.38;;;;;;;;;;4938267;29;20023;-73
2021/10/22 07:34:27;;;;;;;64.35;42.40;;;;;;;;;;4938413;29;20054;-73
2021/10/22 07:36:54;;;;;;;51.28;35.70;;;;;;;;;;4938208;29;20032;-73
2021/10/22 07:39:20;;;;;;;45.35;31.25;;;;;;;;;;4938206;29;20035;-73
2021/10/22 07:41:46;;;;;;;67.18;37.78;;;;;;;;;;4938194;29;20478;-73
2021/10/22 07:44:13;;;;;;;57.67;37.67;;;;;;;;;;4938590;29;20031;-74
2021/10/22 07:46:41;;;;;;;67.15;38.00;;;;;;;;;;4938507;29;20037;-73
2021/10/22 07:49:08;;;;;;;60.33;39.63;;;;;;;;;;4937912;29;20020;-73
2021/10/22 07:51:34;;;;;;;69.30;42.72;;;;;;;;;;4938100;29;20397;-73
2021/10/22 07:54:00;;;;;;;65.03;43.63;;;461.20;1945.60;;;;;;4937547;29;20040;-74
2021/10/22 07:56:25;;;;;;;76.50;52.10;;;461.30;1945.60;;;;;;4938096;29;20438;-74
2021/10/22 07:58:51;;;;;;;178.38;115.75;;;460.90;1996.80;;;;;;4937855;29;20027;-74
2021/10/22 08:01:18;;;;;;;141.20;98.70;;;460.80;2048.00;;;;;;4936161;29;20039;-72
2021/10/22 08:03:45;;;;;;;95.95;69.28;;;461.00;1996.80;;;;;;4937678;29;20087;-73
2021/10/22 08:06:13;;;;;;;81.80;60.03;;;;;;;;;;4938044;29;20035;-73
2021/10/22 08:08:40;;;;;;;77.93;55.03;;;;;;;;;;4935919;29;20143;-73
2021/10/22 08:11:06;;;;;;;86.68;65.35;;;;;;;;;;4937688;29;20024;-74
2021/10/22 08:13:32;;;;;;;67.00;46.75;;;;;;;;;;4937888;29;20023;-74
2021/10/22 08:15:58;;;;;;;77.60;51.80;;;;;;;;;;4937103;29;20067;-74
2021/10/22 08:18:24;;;;;;;72.82;46.95;;;;;;;;;;4937338;29;20020;-74
2021/10/22 08:23:36;;;;;;;78.00;52.78;;;461.40;1868.80;;;;;;4897438;29;20029;-75
2021/10/22 08:26:02;;;;;;;80.55;57.90;;;461.40;1920.00;;;;;;4897508;29;20060;-75
2021/10/22 08:28:28;;;;;;;71.05;52.95;;;461.40;1894.40;;;;;;4897333;29;20442;-74
2021/10/22 08:30:56;;;;;;;79.90;53.70;;;461.50;1894.40;;;;;;4897406;29;20036;-74
2021/10/22 08:33:26;;;;;;;72.70;53.00;;;461.40;1894.40;;;;;;4897203;29;20036;-74
2021/10/22 08:35:54;;;;;;;86.88;58.40;;;461.20;1920.00;;;;;;4896936;29;20048;-74
2021/10/22 08:38:20;;;;;;;82.30;55.75;;;461.40;1894.40;;;;;;4897156;29;20204;-73
2021/10/22 08:40:46;;;;;;;86.00;58.33;;;461.20;1920.00;;;;;;4897192;29;20119;-73
2021/10/22 08:43:12;;;;;;;62.05;41.88;;;461.10;1945.60;;;;;;4897258;29;20111;-72
2021/10/22 08:45:39;;;;;;;62.47;46.00;;;461.20;1894.40;;;;;;4897132;29;20589;-72
2021/10/22 08:48:11;;;;;;;73.43;41.95;;;;;;;;;;4907005;29;20059;-71
2021/10/22 08:50:37;;;;;;;;;;;;;;;;;;4899839;29;20476;-75
2021/10/22 08:53:03;;;;;;;80.78;46.03;;;;;;;;;;4896788;28;20043;-73
2021/10/22 08:55:29;;;;;;;79.15;38.22;;;486.70;1766.40;;;;;;4896576;29;20504;-75
2021/10/22 08:57:55;;;;;;;73.80;39.35;;;486.80;1868.80;;;;;;4897087;29;20044;-73
2021/10/22 09:00:22;;;;;;;102.03;53.67;;;;;;;;;;4911052;29;20043;-74
2021/10/22 09:02:49;;;;;;;34.90;22.17;;;;;;;;;;4936671;29;20030;-75
2021/10/22 09:05:16;;;;;;;55.92;29.73;;;;;;;;;;4935516;29;20035;-75
2021/10/22 09:07:49;;;;;;;92.50;68.97;;;;;;;;;;4936728;29;20031;-75
2021/10/22 09:10:19;;;;;;;104.43;48.00;;;;;;;;;;4924781;29;20027;-75
2021/10/22 09:12:49;;;;;;;125.72;86.97;;;;;;;;;;4936571;29;20119;-74
2021/10/22 09:15:19;;;;;;;87.78;66.03;;;;;;;;;;4936807;29;20074;-75
2021/10/22 09:17:47;;;;;;;78.68;61.10;;;;;;;;;;4936577;29;20028;-74
2021/10/22 09:20:13;;;;;;;69.25;47.42;;;;;;;;;;4936441;29;20031;-75
2021/10/22 09:22:40;;;;;;;49.35;36.25;;;;;;;;;;4936738;29;20031;-74
2021/10/22 09:25:09;;;;;;;69.18;48.80;;;;;;;;;;4936348;29;20047;-74
2021/10/22 09:27:35;;;;;;;44.30;29.65;;;;;;;;;;4934607;29;20485;-75
2021/10/22 09:30:03;;;;;;;75.93;33.03;;;;;;;;;;4936010;29;20027;-75
2021/10/22 09:32:30;;;;;;;71.82;41.83;;;;;;;;;;4936154;29;20027;-75
2021/10/22 09:34:56;;;;;;;79.82;44.70;;;;;;;;;;4936136;29;20036;-74
2021/10/22 09:37:22;;;;;;;71.35;48.58;;;;;;;;;;4936189;29;20028;-75
2021/10/22 09:39:48;;;;;;;102.65;60.15;;;487.30;1638.40;;;;;;4936186;29;20024;-76
2021/10/22 09:42:18;;;;;;;60.05;42.00;;;487.20;1638.40;;;;;;4935584;29;20024;-76
2021/10/22 09:44:46;;;;;;;66.38;45.65;;;487.30;1638.40;;;;;;4936000;29;20031;-76
2021/10/22 09:47:13;;;;;;;46.88;32.80;;;512.00;1638.40;;;;;;4935689;29;20016;-75
2021/10/22 09:49:44;;;;;;;65.88;35.10;;;512.00;1638.40;;;;;;4934717;29;20031;-76
2021/10/22 09:52:30;;;;;;;71.68;38.00;;;512.00;1638.40;;;;;;4935795;29;20052;-73
2021/10/22 09:55:14;;;;;;;63.92;32.78;;;512.30;1638.40;;;;;;4935740;29;20379;-75
2021/10/22 09:57:44;;;;;;;46.00;26.67;;;512.40;1612.80;;;;;;4933762;29;20143;-75
2021/10/22 10:00:12;;;;;;;45.92;27.80;;;512.50;1587.20;;;;;;4935911;29;20390;-76
2021/10/22 10:02:42;;;;;;;56.13;29.83;;;512.60;1561.60;;;;;;4935505;29;20462;-76
2021/10/22 10:05:11;;;;;;;55.03;31.95;;;512.50;1561.60;;;;;;4935886;29;20031;-76
2021/10/22 10:07:38;;;;;;;43.95;28.00;;;;;;;;;;4935690;29;20031;-75
2021/10/22 10:10:06;;;;;;;35.10;26.77;;;537.70;1536.00;;;;;;4935603;29;20028;-74
2021/10/22 10:12:34;;;;;;;42.63;28.05;;;537.70;1536.00;;;;;;4935349;29;20027;-73
2021/10/22 10:15:00;;;;;;;31.10;25.35;;;;;;;;;;4935502;29;20036;-75
2021/10/22 10:17:27;;;;;;;27.73;20.30;;;;;;;;;;4935679;29;20027;-75
2021/10/22 10:19:55;;;;;;;29.23;20.10;;;;;;;;;;4935220;29;20065;-73
2021/10/22 10:22:27;;;;;;;48.83;23.20;;;;;;;;;;4935453;29;20024;-75
2021/10/22 10:25:01;;;;;;;35.97;21.30;;;;;;;;;;4935283;29;20027;-73
2021/10/22 10:27:27;;;;;;;33.20;26.13;;;;;;;;;;4935360;29;20101;-74
2021/10/22 10:29:55;;;;;;;55.25;31.48;;;;;;;;;;4935289;29;20074;-75
2021/10/22 10:32:24;;;;;;;35.83;19.98;;;665.70;1177.60;;;;;;4935317;29;20387;-72
2021/10/22 10:34:53;;;;;;;32.75;22.38;;;666.50;1203.20;;;;;;4934861;29;20058;-72
2021/10/22 10:37:23;;;;;;;42.95;26.73;;;;;;;;;;4935124;29;20024;-75
2021/10/22 10:39:49;;;;;;;67.30;34.13;;;716.90;1024.00;;;;;;4935013;29;20039;-73
2021/10/22 10:42:29;;;;;;;40.28;33.20;;;;;;;;;;4933647;29;20312;-73
2021/10/22 10:45:25;;;;;;;34.13;24.02;;;716.80;1024.00;;;;;;4935436;29;20106;-76
2021/10/22 10:47:56;;;;;;;49.20;39.22;;;692.00;1024.00;;;;;;4920502;29;20043;-75
2021/10/22 10:50:26;;;;;;;49.38;36.08;;;;;;;;;;4935040;29;20059;-75
2021/10/22 10:52:58;;;;;;;31.50;22.25;;;691.50;1024.00;;;;;;4933558;29;20031;-75
2021/10/22 10:55:26;;;;;;;45.58;29.65;;;;;;;;;;4934479;29;20115;-74
2021/10/22 10:57:54;;;;;;;33.70;23.75;;;;;;;;;;4935048;29;20042;-74
2021/10/22 11:00:43;;;;;;;30.08;23.25;;;;;;;;;;4934726;29;20028;-73
2021/10/22 11:03:12;;;;;;;29.27;21.63;;;;;;;;;;4894791;29;20028;-74
2021/10/22 11:05:50;;;;;;;60.42;38.45;;;;;;;;;;4894825;29;20043;-72
2021/10/22 11:08:20;;;;;;;25.63;18.83;;;;;;;;;;4894747;29;20071;-74
2021/10/22 11:13:44;;;;;;;33.90;26.20;;;640.10;1126.40;;;;;;4882137;29;20037;-76
2021/10/22 11:16:22;;;;;;;43.83;25.02;;;640.00;1126.40;;;;;;4876225;29;20051;-76
2021/10/22 11:18:52;;;;;;;44.05;24.73;;;640.20;1126.40;;;;;;4883070;29;20076;-76
2021/10/22 11:21:19;;;;;;;28.47;20.80;;;640.40;1126.40;;;;;;4895011;29;20040;-73
2021/10/22 11:23:46;;;;;;;35.40;19.95;;;;;;;;;;4894874;29;20044;-75
2021/10/22 11:26:18;;;;;;;23.73;16.63;;;;;;;;;;4895019;29;20036;-75
2021/10/22 11:28:45;;;;;;;40.40;21.05;;;;;;;;;;4894888;29;20034;-75
2021/10/22 11:31:11;;;;;;;27.02;18.48;;;;;;;;;;4895045;29;20111;-74
2021/10/22 11:33:43;;;;;;;37.42;22.58;;;614.80;1177.60;;;;;;4894864;29;20044;-75
2021/10/22 11:36:08;;;;;;;22.27;16.63;;;614.70;1203.20;;;;;;4894670;29;20080;-75
2021/10/22 11:38:34;;;;;;;27.58;18.67;;;;;;;;;;4894831;29;20039;-75
2021/10/22 11:41:13;;;;;;;32.13;21.92;;;614.40;1203.20;;;;;;4929432;29;20490;-72
2021/10/22 11:44:09;;;;;;;31.80;21.48;;;614.40;1228.80;;;;;;4933821;29;20131;-71
2021/10/22 11:46:46;;;;;;;35.22;21.90;;;589.70;1228.80;;;;;;4937411;29;20492;-75
2021/10/22 11:49:23;;;;;;;27.15;18.55;;;;;;;;;;4943603;29;20091;-75
2021/10/22 11:51:52;;;;;;;26.85;18.17;;;;;;;;;;4936228;29;20032;-73
2021/10/22 11:54:18;;;;;;;34.58;19.25;;;;;;;;;;4938409;29;20051;-75
2021/10/22 11:56:45;;;;;;;32.47;21.83;;;588.90;1280.00;;;;;;4938349;29;20504;-73
2021/10/22 11:59:12;;;;;;;30.35;19.88;;;588.80;1280.00;;;;;;4938022;29;20027;-76
2021/10/22 12:01:40;;;;;;;39.80;23.83;;;589.00;1280.00;;;;;;4938094;29;20027;-73
2021/10/22 12:04:21;;;;;;;27.25;19.25;;;589.10;1280.00;;;;;;4937928;29;20055;-76
2021/10/22 12:06:57;;;;;;;;;;;588.90;1305.60;;;;;;4938627;29;20042;-75
2021/10/22 12:09:28;;;;;;;40.05;20.80;;;588.80;1305.60;;;;;;4938240;29;20337;-76
2021/10/22 12:12:07;;;;;;;27.53;19.70;;;588.80;1305.60;;;;;;4938321;29;20094;-72
2021/10/22 12:14:42;;;;;;;44.88;26.23;;;588.90;1305.60;;;;;;4937777;29;20297;-75
2021/10/22 12:17:11;;;;;;;36.00;25.95;;;588.90;1331.20;;;;;;4938039;29;20034;-75
2021/10/22 12:19:38;;;;;;;46.33;32.70;;;;;;;;;;4937656;29;20386;-72
2021/10/22 12:22:05;;;;;;;42.85;38.40;;;;;;;;;;4938085;29;20046;-72
2021/10/22 12:24:45;;;;;;;53.60;38.55;;;;;;;;;;4937781;29;20028;-72
2021/10/22 12:27:11;;;;;;;51.65;38.85;;;;;;;;;;4924694;29;20035;-72
2021/10/22 12:29:56;;;;;;;44.95;28.25;;;563.90;1382.40;;;;;;4937643;29;20074;-76
2021/10/22 12:32:50;;;;;;;37.47;26.13;;;563.90;1382.40;;;;;;4925366;29;20103;-76
2021/10/22 12:35:27;;;;;;;41.30;25.58;;;563.80;1408.00;;;;;;4881220;29;20044;-75
2021/10/22 12:38:09;;;;;;;40.65;26.00;;;563.80;1433.60;;;;;;4897571;29;20041;-76
2021/10/22 12:40:39;;;;;;;40.33;25.38;;;;;;;;;;4897298;29;20039;-75
2021/10/22 12:43:08;;;;;;;35.97;24.77;;;;;;;;;;4897478;29;20395;-72
2021/10/22 12:45:40;;;;;;;47.20;27.85;;;;;;;;;;4897390;29;20087;-75
2021/10/22 12:48:08;;;;;;;47.70;28.38;;;;;;;;;;4897392;29;20023;-72
2021/10/22 12:50:36;;;;;;;58.85;29.77;;;;;;;;;;4897055;29;20024;-75
2021/10/22 12:53:04;;;;;;;45.90;24.85;;;;;;;;;;4895354;29;20067;-74
2021/10/22 12:55:30;;;;;;;49.53;25.77;;;;;;;;;;4910982;29;20062;-74
2021/10/22 12:58:11;;;;;;;53.38;27.60;;;;;;;;;;4908768;29;20021;-71
2021/10/22 13:00:38;;;;;;;49.45;31.10;;;;;;;;;;4898151;29;20028;-72
2021/10/22 13:03:05;;;;;;;40.30;27.50;;;;;;;;;;4912429;29;20530;-72
2021/10/22 13:05:33;;;;;;;42.83;25.45;;;;;;;;;;4896229;29;20044;-73
2021/10/22 13:21:28;;;;;;;51.47;29.15;;;538.30;1459.20;;;;;;4935897;29;20090;-73
2021/10/22 13:23:55;;;;;;;46.80;31.02;;;;;;;;;;4935962;29;20054;-72
2021/10/22 13:26:22;;;;;;;79.82;48.10;;;;;;;;;;4936304;29;20024;-71
2021/10/22 13:28:48;;;;;;;86.90;47.00;;;;;;;;;;4935983;29;20394;-73
2021/10/22 13:31:18;;;;;;;62.35;37.85;;;;;;;;;;4936009;29;20024;-71
2021/10/22 13:33:44;;;;;;;63.13;38.17;;;;;;;;;;4934475;29;20507;-71
2021/10/22 13:36:10;;;;;;;94.45;45.10;;;537.90;1510.40;;;;;;4930282;29;20487;-73
2021/10/22 13:38:36;;;;;;;71.78;45.85;;;537.90;1510.40;;;;;;4937252;29;20036;-71
2021/10/22 13:41:02;;;;;;;69.85;44.45;;;537.90;1510.40;;;;;;4935733;29;20474;-74
2021/10/22 13:43:29;;;;;;;65.07;43.70;;;537.80;1536.00;;;;;;4935600;29;20028;-74
2021/10/22 13:45:55;;;;;;;79.88;51.53;;;;;;;;;;4918622;29;20057;-72
2021/10/22 13:48:21;;;;;;;58.03;34.92;;;;;;;;;;4935852;29;20028;-71
2021/10/22 13:50:48;;;;;;;58.50;33.28;;;;;;;;;;4931723;29;20031;-73
2021/10/22 13:53:21;;;;;;;66.45;40.22;;;;;;;;;;4926592;29;20486;-71
2021/10/22 13:55:47;;;;;;;54.72;37.50;;;;;;;;;;4929947;28;20051;-78
2021/10/22 13:58:14;;;;;;;61.10;41.80;;;;;;;;;;4926169;29;20034;-78
2021/10/22 14:00:40;;;;;;;70.10;41.63;;;;;;;;;;4935634;29;20062;-76
2021/10/22 14:03:06;;;;;;;56.53;41.53;;;;;;;;;;4945032;29;20096;-77